Weather History for Sydney Airport, New South Wales

Change the Weather History Date:

Thursday, November 14, 2013

  Actual Average Record
Temperature  
Mean Temperature 72 °F -  
Max Temperature 82 °F 77 °F - ()
Min Temperature 62 °F 61 °F - ()
Cooling Degree Days 7    
Growing Degree Days 22 (Base 50)    
Moisture  
Dew Point 44 °F    
Average Humidity 38    
Maximum Humidity 73    
Minimum Humidity 10    
Precipitation  
Precipitation 0.00 in 0.12 in - ()
Sea Level Pressure  
Sea Level Pressure 29.92 in    
Wind  
Wind Speed 10 mph ()    
Max Wind Speed 20 mph    
Max Gust Speed 23 mph    
Visibility 15.3 miles    
Events      
T = Trace of Precipitation, MM = Missing Value Source: Averaged Metar Reports

Daily Weather History Graph

Daily Weather History Graph

Search for Another Location

Airport:

Trip Planner

Search our weather history database for the weather conditions in past years. The results will help you decide how hot, cold, wet, or windy it might be!

Date:

Astronomy

Nov. 14, 2013 Rise Set
Actual Time 5:44 AM AEDT 7:35 PM AEDT
Civil Twilight 5:16 AM AEDT 8:02 PM AEDT
Nautical Twilight 4:43 AM AEDT 8:36 PM AEDT
Astronomical Twilight 4:08 AM AEDT 9:11 PM AEDT
Moon 4:20 PM AEDT (11/14) 3:24 AM AEDT (11/14)
Length of Visible Light 14h 46m
Length of Day
13h 51m
Waxing Gibbous, 87% of the Moon is Illuminated
Nov 14
Waxing Gibbous
Nov 18
Full
Nov 26
Last Quarter
Dec 3
New
Dec 10
First Quarter

Hourly Weather History & Observations

Time (AEDT) Temp. Dew Point Humidity Pressure Visibility Wind Dir Wind Speed Gust Speed Precip Events Conditions
12:00 AM 67 °F 58 °F 65% 29.94 in 19 mi SSW 9.2 mph - -   Partly Cloudy
12:00 AM 66.2 °F 57.2 °F 73% 29.92 in - SSW 9.2 mph - N/A   Clear
12:30 AM 66.2 °F 51.8 °F 60% 29.92 in - SW 6.9 mph - N/A   Clear
1:00 AM 66 °F 51 °F 47% 29.93 in - SW 6.9 mph - -  
1:00 AM 66.2 °F 50.0 °F 56% 29.92 in - SW 6.9 mph - N/A   Clear
2:00 AM 64 °F 50 °F 51% 29.92 in - SSW 9.2 mph - -  
2:00 AM 64.4 °F 50.0 °F 59% 29.92 in - SSW 9.2 mph - N/A   Clear
2:30 AM 64.4 °F 48.2 °F 56% 29.92 in - SW 10.4 mph - N/A   Clear
3:00 AM 64 °F 47 °F 43% 29.91 in 19 mi WSW 6.9 mph - -   Partly Cloudy
3:00 AM 64.4 °F 46.4 °F 52% 29.89 in - SW 6.9 mph - N/A   Clear
3:30 AM 64.4 °F 44.6 °F 49% 29.89 in - WSW 6.9 mph - N/A   Clear
4:00 AM 64 °F 42 °F 33% 29.90 in - SW 9.2 mph - -  
4:00 AM 64.4 °F 41.0 °F 42% 29.89 in - SW 9.2 mph - N/A   Clear
4:30 AM 64.4 °F 41.0 °F 42% 29.89 in - WSW 19.6 mph - N/A   Clear
5:00 AM 64 °F 40 °F 30% 29.91 in - WSW 16.1 mph - -  
5:00 AM 64.4 °F 39.2 °F 40% 29.89 in - WSW 16.1 mph - N/A   Clear
5:30 AM 62.6 °F 39.2 °F 42% 29.89 in - WSW 12.7 mph - N/A   Clear
6:00 AM 63 °F 40 °F 31% 29.93 in 25 mi West 9.2 mph - -   Partly Cloudy
6:00 AM 62.6 °F 41.0 °F 45% 29.92 in - West 9.2 mph - N/A   Clear
6:30 AM 62.6 °F 39.2 °F 42% 29.92 in - West 13.8 mph - N/A   Clear
7:00 AM 64 °F 40 °F 30% 29.94 in - West 11.5 mph - -  
7:00 AM 64.4 °F 41.0 °F 42% 29.92 in - West 11.5 mph - N/A   Clear
7:30 AM 68.0 °F 39.2 °F 35% 29.95 in - West 10.4 mph - N/A   Clear
8:00 AM 69 °F 35 °F 18% 29.96 in - WSW 9.2 mph - -  
8:00 AM 69.8 °F 35.6 °F 28% 29.95 in - WSW 9.2 mph - N/A   Clear
8:30 AM 69.8 °F 35.6 °F 28% 29.95 in - West 10.4 mph - N/A   Clear
9:00 AM 71 °F 35 °F 17% 29.96 in 25 mi West 12.7 mph - -   Partly Cloudy
9:00 AM 71.6 °F 35.6 °F 27% 29.95 in - West 12.7 mph - N/A   Clear
9:30 AM 71.6 °F 35.6 °F 27% 29.95 in - WSW 11.5 mph - N/A   Clear
10:00 AM 73 °F 34 °F 14% 29.95 in - WSW 15.0 mph - -  
10:00 AM 73.4 °F 33.8 °F 23% 29.95 in - WSW 15.0 mph - N/A   Clear
10:30 AM 75.2 °F 32.0 °F 21% 29.92 in - West 8.1 mph - N/A   Clear
11:00 AM 78 °F 32 °F 10% 29.94 in - WSW 8.1 mph - -  
11:00 AM 77.0 °F 32.0 °F 19% 29.92 in - WSW 8.1 mph 23.0 mph N/A   Clear
11:30 AM 77.0 °F 33.8 °F 21% 29.92 in - West 9.2 mph - N/A   Clear
12:00 PM 78 °F 32 °F 10% 29.92 in 25 mi West 9.2 mph - -   Partly Cloudy
12:00 PM 77.0 °F 32.0 °F 19% 29.92 in - West 9.2 mph 20.7 mph N/A   Clear
12:30 PM 78.8 °F 32.0 °F 18% 29.89 in - WSW 9.2 mph - N/A   Clear
1:00 PM 80 °F 33 °F 10% 29.90 in - West 10.4 mph - -  
1:00 PM 78.8 °F 33.8 °F 20% 29.89 in - West 10.4 mph - N/A   Clear
1:30 PM 82.4 °F 32.0 °F 16% 29.86 in - SSW 5.8 mph - N/A   Clear
2:00 PM 77 °F 43 °F 19% 29.87 in - East 12.7 mph - -  
2:00 PM 77.0 °F 42.8 °F 29% 29.86 in - East 12.7 mph - N/A   Clear
2:30 PM 77.0 °F 44.6 °F 32% 29.86 in - ESE 17.3 mph - N/A   Clear
3:00 PM 74 °F 45 °F 25% 29.87 in 19 mi ESE 17.3 mph - -   Partly Cloudy
3:00 PM 73.4 °F 44.6 °F 36% 29.86 in - ESE 17.3 mph - N/A   Clear
3:30 PM 75.2 °F 44.6 °F 34% 29.86 in - ESE 15.0 mph - N/A   Clear
4:00 PM 74 °F 46 °F 25% 29.86 in - ESE 16.1 mph - -  
4:00 PM 73.4 °F 46.4 °F 38% 29.86 in - ESE 16.1 mph - N/A   Clear
4:30 PM 73.4 °F 44.6 °F 36% 29.86 in - East 12.7 mph - N/A   Clear
5:00 PM 75 °F 44 °F 22% 29.86 in - SE 18.4 mph - -  
5:00 PM 75.2 °F 42.8 °F 31% 29.86 in - SE 18.4 mph - N/A   Clear
5:30 PM 71.6 °F 46.4 °F 41% 29.86 in - ESE 13.8 mph - N/A   Clear
6:00 PM 72 °F 47 °F 30% 29.88 in 19 mi SE 13.8 mph - -   Partly Cloudy
6:00 PM 71.6 °F 48.2 °F 43% 29.86 in - SE 13.8 mph - N/A   Clear
6:30 PM 69.8 °F 50.0 °F 49% 29.89 in - SE 13.8 mph - N/A   Clear
7:00 PM 69 °F 52 °F 44% 29.91 in - ESE 12.7 mph - -  
7:00 PM 69.8 °F 51.8 °F 53% 29.89 in - ESE 12.7 mph - N/A   Clear
7:30 PM 68.0 °F 50.0 °F 52% 29.92 in - ESE 10.4 mph - N/A   Clear
8:00 PM 69 °F 51 °F 43% 29.95 in - East 9.2 mph - -  
8:00 PM 68.0 °F 51.8 °F 56% 29.95 in - East 9.2 mph - N/A   Clear
8:30 PM 66.2 °F 50.0 °F 56% 29.95 in - East 8.1 mph - N/A   Clear
9:00 PM 66 °F 50 °F 46% 29.98 in 19 mi East 6.9 mph - -   Partly Cloudy
9:00 PM 66.2 °F 50.0 °F 56% 29.98 in - East 6.9 mph - N/A   Clear
9:30 PM 66.2 °F 50.0 °F 56% 29.98 in - East 6.9 mph - N/A   Clear
10:00 PM 66 °F 52 °F 51% 30.00 in - SE 5.8 mph - -  
10:00 PM 66.2 °F 51.8 °F 60% 29.98 in - SE 5.8 mph - N/A   Clear
10:30 PM 66.2 °F 50.0 °F 56% 30.01 in - SE 6.9 mph - N/A   Clear
11:00 PM 67 °F 52 °F 48% 30.01 in - SSE 5.8 mph - -  
11:00 PM 66.2 °F 51.8 °F 60% 30.01 in 6.2 mi SSE 5.8 mph - N/A   Partly Cloudy
11:30 PM 64.4 °F 55.4 °F 73% 30.01 in 6.2 mi SW 10.4 mph - N/A   Partly Cloudy